createdAt,value
2022-11-02T00:01:08.717Z,78.32
2022-11-02T00:03:36.002Z,77.72
2022-11-02T00:06:03.265Z,78.16
2022-11-02T00:08:30.504Z,78.41
2022-11-02T00:10:57.748Z,78.39
2022-11-02T00:13:25.001Z,78.34
2022-11-02T00:15:52.264Z,77.87
2022-11-02T00:18:21.003Z,78.06
2022-11-02T00:20:48.666Z,77.98
2022-11-02T00:23:16.326Z,77.67
2022-11-02T00:25:47.977Z,78.01
2022-11-02T00:28:15.785Z,78.20
2022-11-02T00:30:43.765Z,77.77
2022-11-02T00:33:11.164Z,77.65
2022-11-02T00:35:40.424Z,78.11
2022-11-02T00:38:08.176Z,78.53
2022-11-02T00:40:35.934Z,78.28
2022-11-02T00:43:03.280Z,77.88
2022-11-02T00:45:30.571Z,78.59
2022-11-02T00:47:57.903Z,78.12
2022-11-02T00:50:25.378Z,78.02
2022-11-02T00:52:53.958Z,77.99
2022-11-02T00:55:21.711Z,78.58
2022-11-02T00:57:49.407Z,78.48
2022-11-02T01:00:17.302Z,78.35
2022-11-02T01:02:44.609Z,78.20
2022-11-02T01:05:12.740Z,78.22
2022-11-02T01:07:40.973Z,77.99
2022-11-02T01:10:11.043Z,78.62
2022-11-02T01:12:40.341Z,78.47
2022-11-02T01:15:10.538Z,78.36
2022-11-02T01:17:38.665Z,78.16
2022-11-02T01:20:07.097Z,78.35
2022-11-02T01:22:34.540Z,78.52
2022-11-02T01:25:02.112Z,78.08
2022-11-02T01:27:32.219Z,78.74
2022-11-02T01:29:59.618Z,78.38
2022-11-02T01:32:29.743Z,78.55
2022-11-02T01:34:56.973Z,78.09
2022-11-02T01:37:24.387Z,78.33
2022-11-02T01:39:51.596Z,78.77
2022-11-02T01:42:21.557Z,78.33
2022-11-02T01:44:50.290Z,78.54
2022-11-02T01:47:22.661Z,78.25
2022-11-02T01:49:53.877Z,78.64
2022-11-02T01:52:26.061Z,78.21
2022-11-02T01:54:56.369Z,78.49
2022-11-02T01:57:25.955Z,78.71
2022-11-02T01:59:59.022Z,78.27
2022-11-02T02:02:28.149Z,77.93
2022-11-02T02:05:02.505Z,78.39
2022-11-02T02:07:33.200Z,78.34
2022-11-02T02:10:00.884Z,78.37
2022-11-02T02:12:32.483Z,78.30
2022-11-02T02:15:02.234Z,78.17
2022-11-02T02:17:41.836Z,78.21
2022-11-02T02:20:18.632Z,78.72
2022-11-02T02:23:25.449Z,78.36
2022-11-02T02:26:41.094Z,78.24
2022-11-02T02:29:16.064Z,78.82
2022-11-02T02:31:47.526Z,78.67
2022-11-02T02:34:19.393Z,78.86
2022-11-02T02:36:52.137Z,78.45
2022-11-02T02:39:26.471Z,78.32
2022-11-02T02:42:01.679Z,78.82
2022-11-02T02:44:36.490Z,78.68
2022-11-02T02:47:10.435Z,79.01
2022-11-02T02:49:41.420Z,78.98
2022-11-02T02:52:10.161Z,79.16
2022-11-02T02:54:41.675Z,79.08
2022-11-02T02:57:13.407Z,79.09
2022-11-02T02:59:43.619Z,78.85
2022-11-02T03:02:19.344Z,78.55
2022-11-02T03:04:47.519Z,79.21
2022-11-02T03:07:20.717Z,79.15
2022-11-02T03:09:52.403Z,79.28
2022-11-02T03:12:32.374Z,79.02
2022-11-02T03:15:11.295Z,79.38
2022-11-02T03:17:47.497Z,79.30
2022-11-02T03:20:24.107Z,78.93
2022-11-02T03:23:03.947Z,79.40
2022-11-02T03:25:39.753Z,79.53
2022-11-02T03:28:14.788Z,79.25
2022-11-02T03:30:47.216Z,79.51
2022-11-02T03:33:19.193Z,79.14
2022-11-02T03:35:51.648Z,79.18
2022-11-02T03:38:22.747Z,79.35
2022-11-02T03:40:54.330Z,79.41
2022-11-02T03:43:24.288Z,79.86
2022-11-02T03:45:58.336Z,79.39
2022-11-02T03:48:32.576Z,79.32
2022-11-02T03:51:05.308Z,79.56
2022-11-02T03:53:42.204Z,80.03
2022-11-02T03:56:16.995Z,79.62
2022-11-02T03:58:44.303Z,79.48
2022-11-02T04:01:13.398Z,80.12
2022-11-02T04:03:45.626Z,79.68
2022-11-02T04:06:14.419Z,79.87
2022-11-02T04:08:44.809Z,79.49
2022-11-02T04:11:31.324Z,80.22
2022-11-02T04:14:23.002Z,80.26
2022-11-02T04:17:17.646Z,79.75
2022-11-02T04:19:49.893Z,80.53
2022-11-02T04:22:36.979Z,80.28
2022-11-02T04:25:19.573Z,80.28
2022-11-02T04:28:15.889Z,80.24
2022-11-02T04:30:54.545Z,80.72
2022-11-02T04:33:35.363Z,80.93
2022-11-02T04:36:30.169Z,80.99
2022-11-02T04:38:58.820Z,80.71
2022-11-02T04:41:44.769Z,80.63
2022-11-02T04:44:26.199Z,80.70
2022-11-02T04:47:08.934Z,81.14
2022-11-02T04:49:37.946Z,81.00
2022-11-02T04:52:12.181Z,81.02
2022-11-02T04:54:45.408Z,80.77
2022-11-02T04:57:12.717Z,80.79
2022-11-02T04:59:41.033Z,80.83
2022-11-02T05:02:08.686Z,81.04
2022-11-02T05:04:37.891Z,81.13
2022-11-02T05:07:07.706Z,81.18
2022-11-02T05:09:36.757Z,81.04
2022-11-02T05:12:05.592Z,82.00
2022-11-02T05:14:33.963Z,81.39
2022-11-02T05:17:01.944Z,81.54
2022-11-02T05:19:29.720Z,81.92
2022-11-02T05:21:58.410Z,82.18
2022-11-02T05:24:27.203Z,81.90
2022-11-02T05:26:55.647Z,82.39
2022-11-02T05:29:25.999Z,82.03
2022-11-02T05:31:53.712Z,82.01
2022-11-02T05:34:21.389Z,81.96
2022-11-02T05:36:49.718Z,82.45
2022-11-02T05:39:18.400Z,82.19
2022-11-02T05:41:46.894Z,82.34
2022-11-02T05:44:14.645Z,82.63
2022-11-02T05:46:43.372Z,82.08
2022-11-02T05:49:10.735Z,82.06
2022-11-02T05:51:37.885Z,82.63
2022-11-02T05:54:05.433Z,82.69
2022-11-02T05:56:34.072Z,82.47
2022-11-02T05:59:01.483Z,82.70
2022-11-02T06:01:28.750Z,82.75
2022-11-02T06:03:56.024Z,82.79
2022-11-02T06:06:23.233Z,82.94
2022-11-02T06:08:50.739Z,82.77
2022-11-02T06:11:17.995Z,82.72
2022-11-02T06:13:50.096Z,82.63
2022-11-02T06:16:22.650Z,82.44
2022-11-02T06:18:50.930Z,82.40
2022-11-02T06:21:18.307Z,82.64
2022-11-02T06:23:47.587Z,82.72
2022-11-02T06:26:15.307Z,82.52
2022-11-02T06:28:42.985Z,81.99
2022-11-02T06:31:12.373Z,82.16
2022-11-02T06:33:39.586Z,81.75
2022-11-02T06:36:08.686Z,81.81
2022-11-02T06:38:36.078Z,81.76
2022-11-02T06:41:06.659Z,81.83
2022-11-02T06:43:38.266Z,81.74
2022-11-02T06:46:06.345Z,81.80
2022-11-02T06:48:35.840Z,82.07
2022-11-02T06:51:04.248Z,81.31
2022-11-02T06:53:32.068Z,81.48
2022-11-02T06:56:00.171Z,81.28
2022-11-02T06:58:27.870Z,81.50
2022-11-02T07:00:58.674Z,81.18
2022-11-02T07:03:25.977Z,81.24
2022-11-02T07:05:54.994Z,80.88
2022-11-02T07:08:22.684Z,81.26
2022-11-02T07:10:50.240Z,81.27
2022-11-02T07:13:17.885Z,81.46
2022-11-02T07:15:45.429Z,81.68
2022-11-02T07:18:13.135Z,80.74
2022-11-02T07:20:40.415Z,81.11
2022-11-02T07:23:10.247Z,81.69
2022-11-02T07:25:37.859Z,81.05
2022-11-02T07:28:05.355Z,81.23
2022-11-02T07:30:34.445Z,81.63
2022-11-02T07:33:02.283Z,81.79
2022-11-02T07:35:30.022Z,81.26
2022-11-02T07:37:59.223Z,81.21
2022-11-02T07:40:28.908Z,81.69
2022-11-02T07:42:56.446Z,81.73
2022-11-02T07:45:33.521Z,81.43
2022-11-02T07:48:00.699Z,80.69
2022-11-02T07:50:28.673Z,81.65
2022-11-02T07:52:57.831Z,80.91
2022-11-02T07:55:27.959Z,80.65
2022-11-02T07:57:56.575Z,80.93
2022-11-02T08:00:24.564Z,80.78
2022-11-02T08:02:54.948Z,81.07
2022-11-02T08:05:22.332Z,80.63
2022-11-02T08:07:57.019Z,80.69
2022-11-02T08:10:25.069Z,80.60
2022-11-02T08:12:53.719Z,81.28
2022-11-02T08:15:21.006Z,81.00
2022-11-02T08:17:48.367Z,80.80
2022-11-02T08:20:15.806Z,80.84
2022-11-02T08:22:43.044Z,80.52
2022-11-02T08:25:10.781Z,80.99
2022-11-02T08:27:39.302Z,81.01
2022-11-02T08:30:09.454Z,80.99
2022-11-02T08:32:36.746Z,80.80
2022-11-02T08:35:04.774Z,81.25
2022-11-02T08:37:32.081Z,80.90
2022-11-02T08:39:59.233Z,81.27
2022-11-02T08:42:26.546Z,80.37
2022-11-02T08:44:53.728Z,80.39
2022-11-02T08:47:23.539Z,81.21
2022-11-02T08:49:51.916Z,80.35
2022-11-02T08:52:19.279Z,80.48
2022-11-02T08:54:46.501Z,80.77
2022-11-02T08:57:13.909Z,80.43
2022-11-02T08:59:41.071Z,80.54
2022-11-02T09:02:10.174Z,80.80
2022-11-02T09:04:38.926Z,80.78
2022-11-02T09:07:06.080Z,80.23
2022-11-02T09:09:33.385Z,80.76
2022-11-02T09:12:00.685Z,80.82
2022-11-02T09:14:28.471Z,81.27
2022-11-02T09:16:55.761Z,81.12
2022-11-02T09:19:22.913Z,81.44
2022-11-02T09:21:51.702Z,81.37
2022-11-02T09:24:19.162Z,81.64
2022-11-02T09:26:48.673Z,81.39
2022-11-02T09:29:16.182Z,80.82
2022-11-02T09:31:43.484Z,81.44
2022-11-02T09:34:10.744Z,81.45
2022-11-02T09:36:37.949Z,81.36
2022-11-02T09:39:07.021Z,81.86
2022-11-02T09:41:41.206Z,81.49
2022-11-02T09:44:15.512Z,82.00
2022-11-02T09:46:45.525Z,82.01
2022-11-02T09:49:16.611Z,81.83
2022-11-02T09:51:46.717Z,81.52
2022-11-02T09:54:20.448Z,81.88
2022-11-02T09:56:49.201Z,81.05
2022-11-02T09:59:18.121Z,81.27
2022-11-02T10:01:56.313Z,81.71
2022-11-02T10:04:49.355Z,81.43
2022-11-02T10:07:34.236Z,80.60
2022-11-02T10:10:09.459Z,80.76
2022-11-02T10:12:43.493Z,80.62
2022-11-02T10:15:16.839Z,80.70
2022-11-02T10:17:47.750Z,80.42
2022-11-02T10:20:27.241Z,80.87
2022-11-02T10:22:59.638Z,80.48
2022-11-02T10:25:28.303Z,80.86
2022-11-02T10:28:04.578Z,80.76
2022-11-02T10:30:32.760Z,80.71
2022-11-02T10:33:00.503Z,81.21
2022-11-02T10:38:32.196Z,80.27
2022-11-02T10:41:18.488Z,79.85
2022-11-02T10:44:03.552Z,80.60
2022-11-02T10:46:45.222Z,79.79
2022-11-02T10:49:21.430Z,80.39
2022-11-02T10:51:49.722Z,79.89
2022-11-02T10:54:20.626Z,80.35
2022-11-02T10:56:56.640Z,80.22
2022-11-02T10:59:24.426Z,79.99
2022-11-02T11:02:10.553Z,79.64
2022-11-02T11:04:38.059Z,79.98
2022-11-02T11:07:08.028Z,80.34
2022-11-02T11:09:41.658Z,79.81
2022-11-02T11:12:22.375Z,79.98
2022-11-02T11:20:34.766Z,79.74
2022-11-02T11:23:21.578Z,79.90
2022-11-02T11:25:57.505Z,80.05
2022-11-02T11:28:28.819Z,80.20
2022-11-02T11:31:07.083Z,80.39
2022-11-02T11:33:43.529Z,79.58
2022-11-02T11:36:19.619Z,79.84
2022-11-02T11:38:49.739Z,79.51
2022-11-02T11:41:17.877Z,79.75
2022-11-02T11:43:47.844Z,79.87
2022-11-02T11:46:16.482Z,79.45
2022-11-02T11:48:48.179Z,79.89
2022-11-02T11:51:32.087Z,79.35
2022-11-02T11:54:21.486Z,79.33
2022-11-02T11:56:50.448Z,79.30
2022-11-02T11:59:24.991Z,79.54
2022-11-02T12:01:56.680Z,79.25
2022-11-02T12:04:29.036Z,78.90
2022-11-02T12:07:16.073Z,78.79
2022-11-02T12:09:51.111Z,78.59
2022-11-02T12:12:29.327Z,78.93
2022-11-02T12:15:12.072Z,79.63
2022-11-02T12:17:51.716Z,79.15
2022-11-02T12:20:40.856Z,79.25
2022-11-02T12:23:22.406Z,79.34
2022-11-02T12:26:00.270Z,78.95
2022-11-02T12:28:32.025Z,78.78
2022-11-02T12:31:15.934Z,77.93
2022-11-02T12:33:53.997Z,78.01
2022-11-02T12:37:03.434Z,78.03
2022-11-02T12:39:34.502Z,77.13
2022-11-02T12:42:19.370Z,76.88
2022-11-02T12:44:59.211Z,77.79
2022-11-02T12:47:42.423Z,77.03
2022-11-02T12:50:21.830Z,77.06
2022-11-02T12:52:58.978Z,76.97
2022-11-02T12:55:37.294Z,77.27
2022-11-02T12:58:08.619Z,77.18
2022-11-02T13:00:40.483Z,76.79
2022-11-02T13:03:25.498Z,77.31
2022-11-02T13:05:57.567Z,77.18
2022-11-02T13:08:33.411Z,77.05
2022-11-02T13:11:06.402Z,76.58
2022-11-02T13:13:39.062Z,77.46
2022-11-02T13:16:07.976Z,77.09
2022-11-02T13:18:41.983Z,76.44
2022-11-02T13:21:13.898Z,76.78
2022-11-02T13:23:46.354Z,76.79
2022-11-02T13:26:21.762Z,76.29
2022-11-02T13:28:53.423Z,76.43
2022-11-02T13:31:28.197Z,76.35
2022-11-02T13:34:01.770Z,76.72
2022-11-02T13:36:29.486Z,76.62
2022-11-02T13:39:01.086Z,76.58
2022-11-02T13:41:48.541Z,76.80
2022-11-02T13:44:41.399Z,76.40
2022-11-02T13:47:23.516Z,76.32
2022-11-02T13:49:54.926Z,76.48
2022-11-02T13:52:31.513Z,76.40
2022-11-02T13:55:03.275Z,76.81
2022-11-02T13:57:35.700Z,76.31
2022-11-02T14:00:07.076Z,76.20
2022-11-02T14:02:40.416Z,76.50
2022-11-02T14:05:21.294Z,76.36
2022-11-02T14:07:50.404Z,76.54
2022-11-02T14:10:20.060Z,77.07
2022-11-02T14:12:47.843Z,76.61
2022-11-02T14:15:57.459Z,76.66
2022-11-02T14:18:31.441Z,76.81
2022-11-02T14:21:38.279Z,76.13
2022-11-02T14:24:41.187Z,76.49
2022-11-02T14:27:29.950Z,76.72
2022-11-02T14:29:58.452Z,76.49
2022-11-02T14:32:41.088Z,76.40
2022-11-02T14:35:24.630Z,76.89
2022-11-02T14:38:12.471Z,76.46
2022-11-02T14:40:52.587Z,76.74
2022-11-02T14:43:58.583Z,76.87
2022-11-02T14:46:34.172Z,76.39
2022-11-02T14:49:04.403Z,76.77
2022-11-02T14:51:33.835Z,76.52
2022-11-02T14:54:06.779Z,76.85
2022-11-02T14:56:50.303Z,76.96
2022-11-02T14:59:21.818Z,76.67
2022-11-02T15:01:55.436Z,77.15
2022-11-02T15:04:25.619Z,77.37
2022-11-02T15:06:56.038Z,77.29
2022-11-02T15:09:56.536Z,76.79
2022-11-02T15:12:36.483Z,77.31
2022-11-02T15:15:29.657Z,77.32
2022-11-02T15:18:24.647Z,77.81
2022-11-02T15:21:23.900Z,77.38
2022-11-02T15:23:57.587Z,77.74
2022-11-02T15:26:31.952Z,77.50
2022-11-02T15:29:02.776Z,77.69
2022-11-02T15:31:30.605Z,77.54
2022-11-02T15:34:00.576Z,77.65
2022-11-02T15:36:31.351Z,77.48
2022-11-02T15:39:01.317Z,77.66
2022-11-02T15:41:38.609Z,77.74
2022-11-02T15:44:27.571Z,77.58
2022-11-02T15:47:04.587Z,77.78
2022-11-02T15:49:58.596Z,77.57
2022-11-02T15:53:08.734Z,77.78
2022-11-02T15:55:43.051Z,78.05
2022-11-02T15:58:26.087Z,77.62
2022-11-02T16:01:12.028Z,77.63
2022-11-02T16:03:44.762Z,77.88
2022-11-02T16:06:12.103Z,77.75
2022-11-02T16:08:39.394Z,77.90
2022-11-02T16:11:13.415Z,77.68
2022-11-02T16:14:03.290Z,78.12
2022-11-02T16:16:34.700Z,78.04
2022-11-02T16:19:03.078Z,77.96
2022-11-02T16:21:30.583Z,78.01
2022-11-02T16:23:59.515Z,78.43
2022-11-02T16:26:29.910Z,78.23
2022-11-02T16:29:00.826Z,78.01
2022-11-02T16:31:32.166Z,78.17
2022-11-02T16:34:02.961Z,78.05
2022-11-02T16:36:50.302Z,78.26
2022-11-02T16:39:21.766Z,78.37
2022-11-02T16:41:51.351Z,78.16
2022-11-02T16:44:25.196Z,78.28
2022-11-02T16:46:57.759Z,78.18
2022-11-02T16:49:26.418Z,78.17
2022-11-02T16:51:55.308Z,78.07
2022-11-02T16:54:43.077Z,78.57
2022-11-02T16:57:16.524Z,78.38
2022-11-02T16:59:52.467Z,78.35
2022-11-02T17:02:30.057Z,78.23
2022-11-02T17:05:02.328Z,78.63
2022-11-02T17:07:35.932Z,78.38
2022-11-02T17:10:06.091Z,78.04
2022-11-02T17:12:35.680Z,78.49
2022-11-02T17:15:14.960Z,77.94
2022-11-02T17:17:42.098Z,78.30
2022-11-02T17:20:19.138Z,78.02
2022-11-02T17:23:03.349Z,78.34
2022-11-02T17:25:32.541Z,78.25
2022-11-02T17:28:01.566Z,78.39
2022-11-02T17:30:45.051Z,78.04
2022-11-02T17:33:31.122Z,78.26
2022-11-02T17:36:04.681Z,78.19
2022-11-02T17:38:32.141Z,78.17
2022-11-02T17:41:00.849Z,78.48
2022-11-02T17:43:28.271Z,78.27
2022-11-02T17:45:58.618Z,78.13
2022-11-02T17:48:29.062Z,77.88
2022-11-02T17:50:59.920Z,78.41
2022-11-02T17:53:27.720Z,78.62
2022-11-02T17:55:56.238Z,78.07
2022-11-02T17:58:23.486Z,78.15
2022-11-02T18:00:54.008Z,78.39
2022-11-02T18:03:29.831Z,78.51
2022-11-02T18:06:00.330Z,78.16
2022-11-02T18:08:28.043Z,78.25
2022-11-02T18:10:55.697Z,78.46
2022-11-02T18:13:23.999Z,78.22
2022-11-02T18:15:51.306Z,78.39
2022-11-02T18:18:18.813Z,78.54
2022-11-02T18:20:47.547Z,78.28
2022-11-02T18:23:15.957Z,78.81
2022-11-02T18:25:43.506Z,78.49
2022-11-02T18:28:11.054Z,78.29
2022-11-02T18:30:43.322Z,78.37
2022-11-02T18:33:13.501Z,78.50
2022-11-02T18:35:42.454Z,78.50
2022-11-02T18:38:11.906Z,78.76
2022-11-02T18:40:39.825Z,78.33
2022-11-02T18:43:07.580Z,78.58
2022-11-02T18:45:35.228Z,78.70
2022-11-02T18:48:03.389Z,78.47
2022-11-02T18:50:30.963Z,78.59
2022-11-02T18:52:58.101Z,78.58
2022-11-02T18:55:26.800Z,78.53
2022-11-02T18:57:54.155Z,78.86
2022-11-02T19:00:21.699Z,78.70
2022-11-02T19:02:49.012Z,78.43
2022-11-02T19:05:34.834Z,78.53
2022-11-02T19:08:21.106Z,78.61
2022-11-02T19:10:49.454Z,78.97
2022-11-02T19:13:16.752Z,78.82
2022-11-02T19:15:44.078Z,78.66
2022-11-02T19:18:11.316Z,78.94
2022-11-02T19:20:38.576Z,78.97
2022-11-02T19:23:06.149Z,78.58
2022-11-02T19:25:33.588Z,78.88
2022-11-02T19:28:04.664Z,78.71
2022-11-02T19:30:32.237Z,78.91
2022-11-02T19:32:59.536Z,78.90
2022-11-02T19:35:26.760Z,78.52
2022-11-02T19:37:57.841Z,79.12
2022-11-02T19:40:25.405Z,78.59
2022-11-02T19:42:52.784Z,79.16
2022-11-02T19:45:21.554Z,78.83
2022-11-02T19:47:50.330Z,78.72
2022-11-02T19:50:17.773Z,78.92
2022-11-02T19:52:46.429Z,78.90
2022-11-02T19:55:13.738Z,78.63
2022-11-02T19:57:41.024Z,78.70
2022-11-02T20:00:09.928Z,78.90
2022-11-02T20:02:38.691Z,78.73
2022-11-02T20:05:06.643Z,78.82
2022-11-02T20:07:33.856Z,79.16
2022-11-02T20:10:01.104Z,79.04
2022-11-02T20:12:33.209Z,78.75
2022-11-02T20:15:00.392Z,79.07
2022-11-02T20:17:38.135Z,79.10
2022-11-02T20:20:15.493Z,78.86
2022-11-02T20:22:43.381Z,79.40
2022-11-02T20:25:10.641Z,78.69
2022-11-02T20:27:38.468Z,78.89
2022-11-02T20:30:06.803Z,79.39
2022-11-02T20:32:34.158Z,79.01
2022-11-02T20:35:01.610Z,78.97
2022-11-02T20:37:34.376Z,79.12
2022-11-02T20:40:02.160Z,79.08
2022-11-02T20:42:30.518Z,79.16
2022-11-02T20:44:57.694Z,79.13
2022-11-02T20:47:24.829Z,79.46
2022-11-02T20:49:52.022Z,79.25
2022-11-02T20:52:19.247Z,79.24
2022-11-02T20:54:47.991Z,79.47
2022-11-02T20:57:15.228Z,78.86
2022-11-02T20:59:42.389Z,79.12
2022-11-02T21:02:11.478Z,79.00
2022-11-02T21:04:38.970Z,79.30
2022-11-02T21:07:07.478Z,79.26
2022-11-02T21:09:35.235Z,79.09
2022-11-02T21:12:22.760Z,79.23
2022-11-02T21:14:50.173Z,79.57
2022-11-02T21:17:17.386Z,79.71
2022-11-02T21:19:44.615Z,79.57
2022-11-02T21:22:12.460Z,79.81
2022-11-02T21:24:39.764Z,79.33
2022-11-02T21:27:08.327Z,79.65
2022-11-02T21:29:35.570Z,79.80
2022-11-02T21:32:02.979Z,79.36
2022-11-02T21:34:30.247Z,79.32
2022-11-02T21:36:57.662Z,79.57
2022-11-02T21:39:25.046Z,79.24
2022-11-02T21:41:52.270Z,79.69
2022-11-02T21:44:21.049Z,79.18
2022-11-02T21:46:49.854Z,79.70
2022-11-02T21:49:17.157Z,79.32
2022-11-02T21:51:44.686Z,79.72
2022-11-02T21:54:11.888Z,79.73
2022-11-02T21:56:39.765Z,79.52
2022-11-02T21:59:07.161Z,79.81
2022-11-02T22:01:45.118Z,79.42
2022-11-02T22:04:14.314Z,79.59
2022-11-02T22:06:42.482Z,79.24
2022-11-02T22:09:12.281Z,79.40
2022-11-02T22:11:40.669Z,79.41
2022-11-02T22:14:07.842Z,79.21
2022-11-02T22:16:38.416Z,79.95
2022-11-02T22:19:07.356Z,79.73
2022-11-02T22:21:38.010Z,79.34
2022-11-02T22:24:06.664Z,79.78
2022-11-02T22:26:35.653Z,79.72
2022-11-02T22:29:03.552Z,79.88
2022-11-02T22:31:32.884Z,79.93
2022-11-02T22:34:03.661Z,79.48
2022-11-02T22:36:33.710Z,79.45
2022-11-02T22:39:02.725Z,79.32
2022-11-02T22:41:32.027Z,79.25
2022-11-02T22:44:01.789Z,79.90
2022-11-02T22:46:30.810Z,79.80
2022-11-02T22:48:59.672Z,80.06
2022-11-02T22:51:29.802Z,79.76
2022-11-02T22:54:01.190Z,79.76
2022-11-02T22:56:28.700Z,79.66
2022-11-02T22:58:56.346Z,80.23
2022-11-02T23:01:25.791Z,79.86
2022-11-02T23:03:53.605Z,79.79
2022-11-02T23:06:22.318Z,79.46
2022-11-02T23:08:55.058Z,79.77
2022-11-02T23:11:25.403Z,79.54
2022-11-02T23:13:56.622Z,79.96
2022-11-02T23:16:26.718Z,79.76
2022-11-02T23:19:22.062Z,80.10
2022-11-02T23:22:14.635Z,80.09
2022-11-02T23:25:03.411Z,79.67
2022-11-02T23:27:32.512Z,79.60
2022-11-02T23:30:18.495Z,80.27
2022-11-02T23:32:45.946Z,80.07
2022-11-02T23:35:31.924Z,80.03
2022-11-02T23:38:04.035Z,79.84
2022-11-02T23:40:33.414Z,79.99
2022-11-02T23:43:00.641Z,79.95
2022-11-02T23:45:27.900Z,79.42
2022-11-02T23:48:00.131Z,79.69
2022-11-02T23:50:49.291Z,80.02
2022-11-02T23:53:37.223Z,79.52
2022-11-02T23:56:31.317Z,79.49
2022-11-02T23:59:07.389Z,79.80
